Orlando, Florida
Traffic Map
Current Weather Conditions
Orlando, Florida
Clear
Clear
85°
Feels Like: 85°
Wind Chill: 85° Ceiling: Unl
Heat Index: 85° Visibility: 10mi
Dew Point: 56° Wind: 12mph
Humidity: 37% Direction: 170° (S)
Pressure: 30.06in Gusts: 0mph
Raw Report DataKORL 012053Z 17010KT 10SM CLR 29/13 A3006 RMK AO2 SLP181 T02940133 56024
Traffic Incident Summary
Active as of:
Severity:
Category:
InformationThere was an issue retrieving the traffic information for this location. Please try a different location or try again shortly.
Advertisements
Track Severe Weather on mobile